sensor_id;sensor_type;location;lat;lon;timestamp;P1;durP1;ratioP1;P2;durP2;ratioP2
51174;SDS011;37240;50.104;20.010;2024-01-15T00:02:26;11.68;;;5.57;;
51174;SDS011;37240;50.104;20.010;2024-01-15T00:07:27;9.20;;;4.72;;
51174;SDS011;37240;50.104;20.010;2024-01-15T00:12:27;8.80;;;5.50;;
51174;SDS011;37240;50.104;20.010;2024-01-15T00:17:28;11.80;;;5.70;;
51174;SDS011;37240;50.104;20.010;2024-01-15T00:22:28;14.23;;;5.95;;
51174;SDS011;37240;50.104;20.010;2024-01-15T00:27:29;8.65;;;5.25;;
51174;SDS011;37240;50.104;20.010;2024-01-15T00:32:29;7.40;;;4.60;;
51174;SDS011;37240;50.104;20.010;2024-01-15T00:37:30;13.18;;;5.70;;
51174;SDS011;37240;50.104;20.010;2024-01-15T00:42:30;6.80;;;5.03;;
51174;SDS011;37240;50.104;20.010;2024-01-15T00:47:31;6.82;;;4.45;;
51174;SDS011;37240;50.104;20.010;2024-01-15T00:52:31;9.95;;;4.68;;
51174;SDS011;37240;50.104;20.010;2024-01-15T00:57:32;8.27;;;4.93;;
51174;SDS011;37240;50.104;20.010;2024-01-15T01:02:32;7.07;;;4.10;;
51174;SDS011;37240;50.104;20.010;2024-01-15T01:07:33;8.50;;;4.78;;
51174;SDS011;37240;50.104;20.010;2024-01-15T01:12:33;11.48;;;4.45;;
51174;SDS011;37240;50.104;20.010;2024-01-15T01:17:34;9.60;;;4.55;;
51174;SDS011;37240;50.104;20.010;2024-01-15T01:22:34;8.00;;;3.97;;
51174;SDS011;37240;50.104;20.010;2024-01-15T01:27:35;9.70;;;5.10;;
51174;SDS011;37240;50.104;20.010;2024-01-15T01:32:36;7.65;;;4.13;;
51174;SDS011;37240;50.104;20.010;2024-01-15T01:37:36;7.25;;;4.78;;
51174;SDS011;37240;50.104;20.010;2024-01-15T01:42:37;12.15;;;4.35;;
51174;SDS011;37240;50.104;20.010;2024-01-15T01:47:37;8.73;;;4.50;;
51174;SDS011;37240;50.104;20.010;2024-01-15T01:52:39;7.32;;;4.15;;
51174;SDS011;37240;50.104;20.010;2024-01-15T01:57:40;10.27;;;4.68;;
51174;SDS011;37240;50.104;20.010;2024-01-15T02:02:41;11.32;;;4.75;;
51174;SDS011;37240;50.104;20.010;2024-01-15T02:07:42;8.93;;;5.32;;
51174;SDS011;37240;50.104;20.010;2024-01-15T02:12:44;9.63;;;5.15;;
51174;SDS011;37240;50.104;20.010;2024-01-15T02:18:01;8.52;;;4.60;;
51174;SDS011;37240;50.104;20.010;2024-01-15T02:23:12;6.15;;;4.03;;
51174;SDS011;37240;50.104;20.010;2024-01-15T02:28:17;10.60;;;4.72;;
51174;SDS011;37240;50.104;20.010;2024-01-15T02:33:18;8.57;;;4.10;;
51174;SDS011;37240;50.104;20.010;2024-01-15T02:38:18;7.22;;;4.45;;
51174;SDS011;37240;50.104;20.010;2024-01-15T02:43:19;7.05;;;4.30;;
51174;SDS011;37240;50.104;20.010;2024-01-15T02:48:19;5.38;;;3.35;;
51174;SDS011;37240;50.104;20.010;2024-01-15T02:53:20;3.70;;;3.20;;
51174;SDS011;37240;50.104;20.010;2024-01-15T02:58:21;8.10;;;3.92;;
51174;SDS011;37240;50.104;20.010;2024-01-15T03:03:22;5.68;;;3.38;;
51174;SDS011;37240;50.104;20.010;2024-01-15T03:08:22;23.73;;;9.02;;
51174;SDS011;37240;50.104;20.010;2024-01-15T03:13:23;33.22;;;12.40;;
51174;SDS011;37240;50.104;20.010;2024-01-15T03:18:23;19.23;;;7.80;;
51174;SDS011;37240;50.104;20.010;2024-01-15T03:23:24;9.82;;;5.07;;
51174;SDS011;37240;50.104;20.010;2024-01-15T03:28:24;5.80;;;3.53;;
51174;SDS011;37240;50.104;20.010;2024-01-15T03:33:25;6.40;;;3.47;;
51174;SDS011;37240;50.104;20.010;2024-01-15T03:38:27;4.03;;;2.92;;
51174;SDS011;37240;50.104;20.010;2024-01-15T03:43:28;2.90;;;2.65;;
51174;SDS011;37240;50.104;20.010;2024-01-15T03:48:29;6.60;;;3.15;;
51174;SDS011;37240;50.104;20.010;2024-01-15T03:53:30;3.88;;;2.60;;
51174;SDS011;37240;50.104;20.010;2024-01-15T03:58:30;6.47;;;3.40;;
51174;SDS011;37240;50.104;20.010;2024-01-15T04:03:31;3.70;;;2.67;;
51174;SDS011;37240;50.104;20.010;2024-01-15T04:08:31;3.15;;;2.58;;
51174;SDS011;37240;50.104;20.010;2024-01-15T04:13:32;3.72;;;2.58;;
51174;SDS011;37240;50.104;20.010;2024-01-15T04:18:33;2.40;;;2.22;;
51174;SDS011;37240;50.104;20.010;2024-01-15T04:23:33;3.63;;;2.40;;
51174;SDS011;37240;50.104;20.010;2024-01-15T04:28:34;5.72;;;3.00;;
51174;SDS011;37240;50.104;20.010;2024-01-15T04:33:34;3.35;;;2.60;;
51174;SDS011;37240;50.104;20.010;2024-01-15T04:38:35;6.07;;;3.00;;
51174;SDS011;37240;50.104;20.010;2024-01-15T04:43:35;2.47;;;2.25;;
51174;SDS011;37240;50.104;20.010;2024-01-15T04:48:36;5.80;;;2.63;;
51174;SDS011;37240;50.104;20.010;2024-01-15T04:53:37;3.47;;;2.75;;
51174;SDS011;37240;50.104;20.010;2024-01-15T04:58:37;6.95;;;2.90;;
51174;SDS011;37240;50.104;20.010;2024-01-15T05:03:38;4.03;;;2.70;;
51174;SDS011;37240;50.104;20.010;2024-01-15T05:08:38;2.75;;;2.33;;
51174;SDS011;37240;50.104;20.010;2024-01-15T05:13:39;4.35;;;2.70;;
51174;SDS011;37240;50.104;20.010;2024-01-15T05:18:39;2.53;;;2.00;;
51174;SDS011;37240;50.104;20.010;2024-01-15T05:23:41;2.58;;;1.98;;
51174;SDS011;37240;50.104;20.010;2024-01-15T05:28:42;5.70;;;3.20;;
51174;SDS011;37240;50.104;20.010;2024-01-15T05:33:42;3.30;;;2.40;;
51174;SDS011;37240;50.104;20.010;2024-01-15T05:38:43;6.13;;;3.15;;
51174;SDS011;37240;50.104;20.010;2024-01-15T05:43:43;7.72;;;2.97;;
51174;SDS011;37240;50.104;20.010;2024-01-15T05:48:44;3.47;;;3.03;;
51174;SDS011;37240;50.104;20.010;2024-01-15T05:53:44;9.98;;;3.38;;
51174;SDS011;37240;50.104;20.010;2024-01-15T05:58:45;5.95;;;2.80;;
51174;SDS011;37240;50.104;20.010;2024-01-15T06:03:45;6.80;;;3.10;;
51174;SDS011;37240;50.104;20.010;2024-01-15T06:08:46;6.25;;;3.40;;
51174;SDS011;37240;50.104;20.010;2024-01-15T06:13:46;4.20;;;2.90;;
51174;SDS011;37240;50.104;20.010;2024-01-15T06:18:47;4.22;;;2.80;;
51174;SDS011;37240;50.104;20.010;2024-01-15T06:23:47;7.00;;;3.03;;
51174;SDS011;37240;50.104;20.010;2024-01-15T06:28:48;5.13;;;2.95;;
51174;SDS011;37240;50.104;20.010;2024-01-15T06:33:48;5.80;;;2.92;;
51174;SDS011;37240;50.104;20.010;2024-01-15T06:38:49;4.38;;;2.60;;
51174;SDS011;37240;50.104;20.010;2024-01-15T06:43:49;3.20;;;2.95;;
51174;SDS011;37240;50.104;20.010;2024-01-15T06:48:50;8.30;;;3.58;;
51174;SDS011;37240;50.104;20.010;2024-01-15T06:53:51;5.85;;;3.50;;
51174;SDS011;37240;50.104;20.010;2024-01-15T06:58:51;8.98;;;4.45;;
51174;SDS011;37240;50.104;20.010;2024-01-15T07:03:52;4.28;;;2.75;;
51174;SDS011;37240;50.104;20.010;2024-01-15T07:08:52;6.50;;;3.38;;
51174;SDS011;37240;50.104;20.010;2024-01-15T07:13:53;9.02;;;3.67;;
51174;SDS011;37240;50.104;20.010;2024-01-15T07:18:53;7.18;;;4.20;;
51174;SDS011;37240;50.104;20.010;2024-01-15T07:23:54;5.63;;;3.60;;
51174;SDS011;37240;50.104;20.010;2024-01-15T07:28:54;12.90;;;4.18;;
51174;SDS011;37240;50.104;20.010;2024-01-15T07:33:55;7.22;;;3.97;;
51174;SDS011;37240;50.104;20.010;2024-01-15T07:38:55;4.15;;;3.10;;
51174;SDS011;37240;50.104;20.010;2024-01-15T07:43:56;10.07;;;4.30;;
51174;SDS011;37240;50.104;20.010;2024-01-15T07:48:56;6.80;;;3.92;;
51174;SDS011;37240;50.104;20.010;2024-01-15T07:53:57;10.23;;;4.43;;
51174;SDS011;37240;50.104;20.010;2024-01-15T07:58:58;8.68;;;4.57;;
51174;SDS011;37240;50.104;20.010;2024-01-15T08:03:58;10.20;;;5.25;;
51174;SDS011;37240;50.104;20.010;2024-01-15T08:08:59;9.65;;;4.40;;
51174;SDS011;37240;50.104;20.010;2024-01-15T08:13:59;9.43;;;5.13;;
51174;SDS011;37240;50.104;20.010;2024-01-15T08:19:00;12.40;;;4.53;;
51174;SDS011;37240;50.104;20.010;2024-01-15T08:24:01;12.23;;;4.93;;
51174;SDS011;37240;50.104;20.010;2024-01-15T08:29:02;14.23;;;5.03;;
51174;SDS011;37240;50.104;20.010;2024-01-15T08:34:03;12.38;;;5.18;;
51174;SDS011;37240;50.104;20.010;2024-01-15T08:39:03;8.70;;;5.20;;
51174;SDS011;37240;50.104;20.010;2024-01-15T08:44:04;9.65;;;5.25;;
51174;SDS011;37240;50.104;20.010;2024-01-15T08:49:04;11.20;;;5.32;;
51174;SDS011;37240;50.104;20.010;2024-01-15T08:54:05;12.27;;;6.05;;
51174;SDS011;37240;50.104;20.010;2024-01-15T08:59:06;22.35;;;5.45;;
51174;SDS011;37240;50.104;20.010;2024-01-15T09:04:07;12.38;;;5.82;;
51174;SDS011;37240;50.104;20.010;2024-01-15T09:09:07;10.90;;;5.47;;
51174;SDS011;37240;50.104;20.010;2024-01-15T09:14:08;13.20;;;5.15;;
51174;SDS011;37240;50.104;20.010;2024-01-15T09:19:08;11.52;;;5.13;;
51174;SDS011;37240;50.104;20.010;2024-01-15T09:24:09;10.38;;;5.65;;
51174;SDS011;37240;50.104;20.010;2024-01-15T09:29:09;11.40;;;5.63;;
51174;SDS011;37240;50.104;20.010;2024-01-15T09:34:10;13.70;;;6.30;;
51174;SDS011;37240;50.104;20.010;2024-01-15T09:39:10;17.70;;;6.80;;
51174;SDS011;37240;50.104;20.010;2024-01-15T09:44:11;12.05;;;5.93;;
51174;SDS011;37240;50.104;20.010;2024-01-15T09:49:12;22.50;;;7.40;;
51174;SDS011;37240;50.104;20.010;2024-01-15T09:54:12;32.80;;;8.23;;
51174;SDS011;37240;50.104;20.010;2024-01-15T09:59:18;17.65;;;6.85;;
51174;SDS011;37240;50.104;20.010;2024-01-15T10:04:19;20.90;;;7.43;;
51174;SDS011;37240;50.104;20.010;2024-01-15T10:09:19;16.60;;;7.97;;
51174;SDS011;37240;50.104;20.010;2024-01-15T10:14:20;35.17;;;9.48;;
51174;SDS011;37240;50.104;20.010;2024-01-15T10:19:20;20.15;;;7.82;;
51174;SDS011;37240;50.104;20.010;2024-01-15T10:24:22;22.88;;;10.10;;
51174;SDS011;37240;50.104;20.010;2024-01-15T10:29:24;20.27;;;9.05;;
51174;SDS011;37240;50.104;20.010;2024-01-15T10:34:24;21.75;;;8.43;;
51174;SDS011;37240;50.104;20.010;2024-01-15T10:39:25;26.33;;;9.27;;
51174;SDS011;37240;50.104;20.010;2024-01-15T10:44:25;41.45;;;16.10;;
51174;SDS011;37240;50.104;20.010;2024-01-15T10:49:26;49.08;;;18.45;;
51174;SDS011;37240;50.104;20.010;2024-01-15T10:54:27;23.90;;;9.48;;
51174;SDS011;37240;50.104;20.010;2024-01-15T10:59:29;27.38;;;9.77;;
51174;SDS011;37240;50.104;20.010;2024-01-15T11:04:29;31.45;;;9.60;;
51174;SDS011;37240;50.104;20.010;2024-01-15T11:09:32;30.63;;;9.93;;
51174;SDS011;37240;50.104;20.010;2024-01-15T11:14:33;24.23;;;9.95;;
51174;SDS011;37240;50.104;20.010;2024-01-15T11:24:41;44.83;;;15.80;;
51174;SDS011;37240;50.104;20.010;2024-01-15T11:29:42;31.35;;;12.60;;
51174;SDS011;37240;50.104;20.010;2024-01-15T11:40:02;20.92;;;9.20;;
51174;SDS011;37240;50.104;20.010;2024-01-15T11:45:03;24.25;;;10.32;;
51174;SDS011;37240;50.104;20.010;2024-01-15T11:50:04;22.33;;;9.27;;
51174;SDS011;37240;50.104;20.010;2024-01-15T12:00:25;22.30;;;9.52;;
51174;SDS011;37240;50.104;20.010;2024-01-15T12:05:25;19.77;;;8.95;;
51174;SDS011;37240;50.104;20.010;2024-01-15T12:10:26;36.90;;;15.25;;
51174;SDS011;37240;50.104;20.010;2024-01-15T12:15:28;22.50;;;9.70;;
51174;SDS011;37240;50.104;20.010;2024-01-15T12:20:29;25.67;;;9.48;;
51174;SDS011;37240;50.104;20.010;2024-01-15T12:25:30;23.70;;;9.70;;
51174;SDS011;37240;50.104;20.010;2024-01-15T12:30:32;23.23;;;8.95;;
51174;SDS011;37240;50.104;20.010;2024-01-15T12:35:34;26.83;;;9.10;;
51174;SDS011;37240;50.104;20.010;2024-01-15T12:40:35;23.75;;;8.63;;
51174;SDS011;37240;50.104;20.010;2024-01-15T12:45:36;22.33;;;9.30;;
51174;SDS011;37240;50.104;20.010;2024-01-15T12:50:36;23.63;;;9.27;;
51174;SDS011;37240;50.104;20.010;2024-01-15T12:55:37;20.00;;;8.02;;
51174;SDS011;37240;50.104;20.010;2024-01-15T13:00:37;46.92;;;16.95;;
51174;SDS011;37240;50.104;20.010;2024-01-15T13:05:38;42.70;;;17.88;;
51174;SDS011;37240;50.104;20.010;2024-01-15T13:10:39;27.10;;;10.55;;
51174;SDS011;37240;50.104;20.010;2024-01-15T13:15:40;22.13;;;9.50;;
51174;SDS011;37240;50.104;20.010;2024-01-15T13:20:41;22.75;;;8.75;;
51174;SDS011;37240;50.104;20.010;2024-01-15T13:25:41;20.98;;;9.05;;
51174;SDS011;37240;50.104;20.010;2024-01-15T13:30:42;27.20;;;9.70;;
51174;SDS011;37240;50.104;20.010;2024-01-15T13:35:42;20.20;;;9.32;;
51174;SDS011;37240;50.104;20.010;2024-01-15T13:40:43;25.00;;;8.32;;
51174;SDS011;37240;50.104;20.010;2024-01-15T13:45:43;31.08;;;9.15;;
51174;SDS011;37240;50.104;20.010;2024-01-15T13:50:44;20.70;;;8.57;;
51174;SDS011;37240;50.104;20.010;2024-01-15T13:55:45;19.65;;;9.02;;
51174;SDS011;37240;50.104;20.010;2024-01-15T14:00:45;22.08;;;8.70;;
51174;SDS011;37240;50.104;20.010;2024-01-15T14:05:46;24.33;;;8.43;;
51174;SDS011;37240;50.104;20.010;2024-01-15T14:10:47;19.83;;;8.63;;
51174;SDS011;37240;50.104;20.010;2024-01-15T14:15:48;20.73;;;8.50;;
51174;SDS011;37240;50.104;20.010;2024-01-15T14:20:48;18.92;;;8.35;;
51174;SDS011;37240;50.104;20.010;2024-01-15T14:25:49;23.33;;;8.75;;
51174;SDS011;37240;50.104;20.010;2024-01-15T14:30:49;20.98;;;8.70;;
51174;SDS011;37240;50.104;20.010;2024-01-15T14:35:50;18.90;;;8.05;;
51174;SDS011;37240;50.104;20.010;2024-01-15T14:40:50;22.60;;;8.02;;
51174;SDS011;37240;50.104;20.010;2024-01-15T14:45:51;25.08;;;8.38;;
51174;SDS011;37240;50.104;20.010;2024-01-15T14:50:51;17.33;;;8.18;;
51174;SDS011;37240;50.104;20.010;2024-01-15T14:55:52;21.85;;;8.35;;
51174;SDS011;37240;50.104;20.010;2024-01-15T15:00:52;23.27;;;8.27;;
51174;SDS011;37240;50.104;20.010;2024-01-15T15:05:53;29.00;;;8.18;;
51174;SDS011;37240;50.104;20.010;2024-01-15T15:10:54;18.70;;;8.27;;
51174;SDS011;37240;50.104;20.010;2024-01-15T15:15:54;19.42;;;8.45;;
51174;SDS011;37240;50.104;20.010;2024-01-15T15:20:55;16.48;;;7.30;;
51174;SDS011;37240;50.104;20.010;2024-01-15T15:25:55;21.85;;;8.98;;
51174;SDS011;37240;50.104;20.010;2024-01-15T15:30:56;17.48;;;8.05;;
51174;SDS011;37240;50.104;20.010;2024-01-15T15:35:57;20.83;;;6.90;;
51174;SDS011;37240;50.104;20.010;2024-01-15T15:40:57;31.88;;;11.80;;
51174;SDS011;37240;50.104;20.010;2024-01-15T15:45:58;29.63;;;13.68;;
51174;SDS011;37240;50.104;20.010;2024-01-15T15:50:58;21.98;;;8.25;;
51174;SDS011;37240;50.104;20.010;2024-01-15T15:55:59;17.75;;;7.75;;
51174;SDS011;37240;50.104;20.010;2024-01-15T16:00:59;18.00;;;7.53;;
51174;SDS011;37240;50.104;20.010;2024-01-15T16:06:00;23.83;;;8.52;;
51174;SDS011;37240;50.104;20.010;2024-01-15T16:11:00;25.73;;;9.65;;
51174;SDS011;37240;50.104;20.010;2024-01-15T16:16:01;19.15;;;8.15;;
51174;SDS011;37240;50.104;20.010;2024-01-15T16:21:01;19.35;;;7.57;;
51174;SDS011;37240;50.104;20.010;2024-01-15T16:26:02;23.92;;;8.23;;
51174;SDS011;37240;50.104;20.010;2024-01-15T16:31:03;19.80;;;7.65;;
51174;SDS011;37240;50.104;20.010;2024-01-15T16:36:03;24.65;;;8.85;;
51174;SDS011;37240;50.104;20.010;2024-01-15T16:41:04;15.43;;;7.47;;
51174;SDS011;37240;50.104;20.010;2024-01-15T16:46:05;16.92;;;7.20;;
51174;SDS011;37240;50.104;20.010;2024-01-15T16:51:05;44.38;;;17.85;;
51174;SDS011;37240;50.104;20.010;2024-01-15T16:56:06;19.05;;;8.25;;
51174;SDS011;37240;50.104;20.010;2024-01-15T17:01:06;23.13;;;8.60;;
51174;SDS011;37240;50.104;20.010;2024-01-15T17:06:07;22.80;;;7.63;;
51174;SDS011;37240;50.104;20.010;2024-01-15T17:11:08;21.15;;;8.52;;
51174;SDS011;37240;50.104;20.010;2024-01-15T17:16:09;15.18;;;7.85;;
51174;SDS011;37240;50.104;20.010;2024-01-15T17:21:09;11.65;;;7.00;;
51174;SDS011;37240;50.104;20.010;2024-01-15T17:26:10;18.88;;;7.60;;
51174;SDS011;37240;50.104;20.010;2024-01-15T17:31:11;23.30;;;7.88;;
51174;SDS011;37240;50.104;20.010;2024-01-15T17:36:11;17.55;;;7.85;;
51174;SDS011;37240;50.104;20.010;2024-01-15T17:41:12;24.00;;;8.15;;
51174;SDS011;37240;50.104;20.010;2024-01-15T17:46:13;19.08;;;7.80;;
51174;SDS011;37240;50.104;20.010;2024-01-15T17:51:17;15.70;;;6.63;;
51174;SDS011;37240;50.104;20.010;2024-01-15T17:56:17;24.30;;;8.43;;
51174;SDS011;37240;50.104;20.010;2024-01-15T18:01:18;13.88;;;6.15;;
51174;SDS011;37240;50.104;20.010;2024-01-15T18:06:18;13.63;;;7.07;;
51174;SDS011;37240;50.104;20.010;2024-01-15T18:11:19;20.02;;;6.70;;
51174;SDS011;37240;50.104;20.010;2024-01-15T18:16:20;21.60;;;7.55;;
51174;SDS011;37240;50.104;20.010;2024-01-15T18:21:21;18.80;;;7.32;;
51174;SDS011;37240;50.104;20.010;2024-01-15T18:26:22;19.25;;;7.32;;
51174;SDS011;37240;50.104;20.010;2024-01-15T18:31:22;21.58;;;8.25;;
51174;SDS011;37240;50.104;20.010;2024-01-15T18:36:23;19.95;;;7.60;;
51174;SDS011;37240;50.104;20.010;2024-01-15T18:41:24;15.93;;;7.07;;
51174;SDS011;37240;50.104;20.010;2024-01-15T18:46:24;18.98;;;7.90;;
51174;SDS011;37240;50.104;20.010;2024-01-15T18:51:25;20.95;;;8.30;;
51174;SDS011;37240;50.104;20.010;2024-01-15T18:56:26;18.85;;;7.55;;
51174;SDS011;37240;50.104;20.010;2024-01-15T19:01:27;18.48;;;7.80;;
51174;SDS011;37240;50.104;20.010;2024-01-15T19:06:31;13.40;;;7.00;;
51174;SDS011;37240;50.104;20.010;2024-01-15T19:11:32;24.25;;;7.97;;
51174;SDS011;37240;50.104;20.010;2024-01-15T19:16:33;19.88;;;8.10;;
51174;SDS011;37240;50.104;20.010;2024-01-15T19:21:33;18.35;;;7.93;;
51174;SDS011;37240;50.104;20.010;2024-01-15T19:26:34;19.85;;;7.70;;
51174;SDS011;37240;50.104;20.010;2024-01-15T19:31:34;15.15;;;6.43;;
51174;SDS011;37240;50.104;20.010;2024-01-15T19:36:35;17.20;;;7.35;;
51174;SDS011;37240;50.104;20.010;2024-01-15T19:41:35;24.40;;;7.43;;
51174;SDS011;37240;50.104;20.010;2024-01-15T19:46:36;13.07;;;6.80;;
51174;SDS011;37240;50.104;20.010;2024-01-15T19:51:36;18.80;;;7.30;;
51174;SDS011;37240;50.104;20.010;2024-01-15T19:56:37;17.95;;;7.72;;
51174;SDS011;37240;50.104;20.010;2024-01-15T20:01:38;22.10;;;8.80;;
51174;SDS011;37240;50.104;20.010;2024-01-15T20:06:38;23.15;;;8.18;;
51174;SDS011;37240;50.104;20.010;2024-01-15T20:11:39;18.75;;;7.85;;
51174;SDS011;37240;50.104;20.010;2024-01-15T20:16:39;14.77;;;6.75;;
51174;SDS011;37240;50.104;20.010;2024-01-15T20:21:40;18.27;;;7.90;;
51174;SDS011;37240;50.104;20.010;2024-01-15T20:26:40;19.77;;;7.43;;
51174;SDS011;37240;50.104;20.010;2024-01-15T20:31:41;17.80;;;6.80;;
51174;SDS011;37240;50.104;20.010;2024-01-15T20:36:41;17.45;;;6.78;;
51174;SDS011;37240;50.104;20.010;2024-01-15T20:41:42;21.17;;;8.80;;
51174;SDS011;37240;50.104;20.010;2024-01-15T20:46:42;26.02;;;7.82;;
51174;SDS011;37240;50.104;20.010;2024-01-15T20:51:43;24.65;;;11.35;;
51174;SDS011;37240;50.104;20.010;2024-01-15T20:56:43;18.73;;;8.32;;
51174;SDS011;37240;50.104;20.010;2024-01-15T21:01:44;21.23;;;7.65;;
51174;SDS011;37240;50.104;20.010;2024-01-15T21:06:44;19.55;;;8.50;;
51174;SDS011;37240;50.104;20.010;2024-01-15T21:11:45;25.27;;;8.52;;
51174;SDS011;37240;50.104;20.010;2024-01-15T21:16:45;15.02;;;7.30;;
51174;SDS011;37240;50.104;20.010;2024-01-15T21:21:46;15.85;;;7.20;;
51174;SDS011;37240;50.104;20.010;2024-01-15T21:26:47;18.67;;;7.45;;
51174;SDS011;37240;50.104;20.010;2024-01-15T21:31:47;18.17;;;7.90;;
51174;SDS011;37240;50.104;20.010;2024-01-15T21:36:48;18.27;;;8.70;;
51174;SDS011;37240;50.104;20.010;2024-01-15T21:41:48;25.85;;;8.70;;
51174;SDS011;37240;50.104;20.010;2024-01-15T21:46:49;27.10;;;8.05;;
51174;SDS011;37240;50.104;20.010;2024-01-15T21:51:49;23.15;;;8.45;;
51174;SDS011;37240;50.104;20.010;2024-01-15T21:56:50;16.55;;;6.68;;
51174;SDS011;37240;50.104;20.010;2024-01-15T22:01:51;21.13;;;7.28;;
51174;SDS011;37240;50.104;20.010;2024-01-15T22:06:52;18.85;;;7.18;;
51174;SDS011;37240;50.104;20.010;2024-01-15T22:11:52;17.98;;;7.47;;
51174;SDS011;37240;50.104;20.010;2024-01-15T22:16:53;20.60;;;7.68;;
51174;SDS011;37240;50.104;20.010;2024-01-15T22:21:54;22.08;;;7.25;;
51174;SDS011;37240;50.104;20.010;2024-01-15T22:26:54;19.92;;;7.38;;
51174;SDS011;37240;50.104;20.010;2024-01-15T22:31:55;14.05;;;6.60;;
51174;SDS011;37240;50.104;20.010;2024-01-15T22:36:55;18.30;;;6.35;;
51174;SDS011;37240;50.104;20.010;2024-01-15T22:41:56;15.10;;;6.75;;
51174;SDS011;37240;50.104;20.010;2024-01-15T22:46:56;16.77;;;7.10;;
51174;SDS011;37240;50.104;20.010;2024-01-15T22:51:57;18.92;;;7.15;;
51174;SDS011;37240;50.104;20.010;2024-01-15T22:56:57;14.82;;;7.25;;
51174;SDS011;37240;50.104;20.010;2024-01-15T23:01:58;19.67;;;7.22;;
51174;SDS011;37240;50.104;20.010;2024-01-15T23:06:58;12.70;;;6.35;;
51174;SDS011;37240;50.104;20.010;2024-01-15T23:11:59;18.02;;;6.63;;
51174;SDS011;37240;50.104;20.010;2024-01-15T23:16:59;13.52;;;6.47;;
51174;SDS011;37240;50.104;20.010;2024-01-15T23:22:00;15.60;;;6.47;;
51174;SDS011;37240;50.104;20.010;2024-01-15T23:27:00;19.35;;;6.40;;
51174;SDS011;37240;50.104;20.010;2024-01-15T23:32:01;12.95;;;6.70;;
51174;SDS011;37240;50.104;20.010;2024-01-15T23:37:01;14.18;;;6.57;;
51174;SDS011;37240;50.104;20.010;2024-01-15T23:42:02;12.57;;;6.32;;
51174;SDS011;37240;50.104;20.010;2024-01-15T23:47:03;16.70;;;6.07;;
51174;SDS011;37240;50.104;20.010;2024-01-15T23:52:04;12.43;;;5.70;;
51174;SDS011;37240;50.104;20.010;2024-01-15T23:57:05;10.85;;;5.95;;
